Time;durP1;ratioP1;P1;durP2;ratioP2;P2;SDS_P1;SDS_P2;PMS_P1;PMS_P2;Temp;Humidity;BMP_temperature;BMP_pressure;BME280_temperature;BME280_humidity;BME280_pressure;Samples;Min_cycle;Max_cycle;Signal;HPM_P1;HPM_P2
2021/12/09 00:00:47;;;;;;;;;;;;;;;1.98;96.89;100203.25;5074538;28;19923;-35
2021/12/09 00:03:12;;;;;;;;;;;;;;;1.98;97.54;100205.09;5073721;28;19912;-35
2021/12/09 00:05:39;;;;;;;;;;;;;;;1.95;97.08;100216.13;5074623;28;19919;-35
2021/12/09 00:08:05;;;;;;;;;;;;;;;1.96;97.18;100218.63;5074304;28;19912;-36
2021/12/09 00:10:30;;;;;;;;;;;;;;;1.92;97.62;100214.69;5073871;28;19912;-35
2021/12/09 00:12:56;;;;;;;;;;;;;;;1.93;96.99;100211.00;5073627;28;19965;-35
2021/12/09 00:15:21;;;;;;;;;;;;;;;1.95;97.28;100216.13;5073589;28;20418;-36
2021/12/09 00:17:46;;;;;;;;;;;;;;;1.95;97.10;100209.00;5073488;28;19946;-36
2021/12/09 00:20:13;;;;;;;;;;;;;;;1.97;97.10;100203.47;5073613;28;19916;-36
2021/12/09 00:22:38;;;;;;;;;;;;;;;1.93;97.21;100213.69;5073881;28;20344;-36
2021/12/09 00:25:04;;;;;;;;;;;;;;;1.93;96.98;100212.84;5073458;28;19913;-35
2021/12/09 00:27:29;;;;;;;;;;;;;;;1.90;97.48;100218.56;5073376;28;19912;-35
2021/12/09 00:29:54;;;;;;;;;;;;;;;1.88;97.31;100215.25;5074432;28;19913;-35
2021/12/09 00:32:20;;;;;;;;;;;;;;;1.87;98.05;100210.94;5073082;28;20021;-36
2021/12/09 00:34:47;;;;;;;;;;;;;;;1.90;97.41;100207.88;5073763;28;20249;-36
2021/12/09 00:37:22;;;;;;;;;;;;;;;1.90;97.54;100214.03;5073727;28;19913;-35
2021/12/09 00:39:51;;;;;;;;;;;;;;;1.90;97.95;100208.72;5073761;28;20268;-35
2021/12/09 00:42:17;;;;;;;;;;;;;;;1.92;97.64;100212.03;5055494;28;19935;-35
2021/12/09 00:44:42;;;;;;;;;;;;;;;1.88;97.62;100218.75;5073376;28;20376;-35
2021/12/09 00:47:07;;;;;;;;;;;;;;;1.92;97.26;100211.22;5073529;28;19912;-35
2021/12/09 00:49:33;;;;;;;;;;;;;;;1.92;97.61;100216.53;5073624;28;19916;-35
2021/12/09 00:51:58;;;;;;;;;;;;;;;1.91;97.75;100221.06;5073052;28;19919;-35
2021/12/09 00:54:23;;;;;;;;;;;;;;;1.92;97.48;100221.88;5073675;28;19951;-35
2021/12/09 00:56:49;;;;;;;;;;;;;;;1.89;97.70;100216.91;5073701;28;20403;-35
2021/12/09 00:59:14;;;;;;;;;;;;;;;1.88;97.55;100221.41;5073354;28;19912;-35
2021/12/09 01:01:39;;;;;;;;;;;;;;;1.91;97.65;100217.56;5073012;28;20302;-36
2021/12/09 01:04:05;;;;;;;;;;;;;;;1.91;97.60;100220.22;5072994;28;20404;-35
2021/12/09 01:06:30;;;;;;;;;;;;;;;1.94;97.90;100225.16;5073640;28;19952;-35
2021/12/09 01:08:55;;;;;;;;;;;;;;;1.96;97.97;100215.97;5073273;28;20284;-35
2021/12/09 01:11:20;;;;;;;;;;;;;;;2.01;97.83;100218.06;5073177;28;20000;-36
2021/12/09 01:13:45;;;;;;;;;;;;;;;2.02;98.03;100220.53;5073255;28;19973;-36
2021/12/09 01:16:11;;;;;;;;;;;;;;;2.01;97.74;100224.22;5073133;28;19913;-35
2021/12/09 01:18:37;;;;;;;;;;;;;;;2.02;97.57;100219.72;5073150;28;19947;-36
2021/12/09 01:21:03;;;;;;;;;;;;;;;2.03;97.61;100232.03;5072725;28;19912;-35
2021/12/09 01:23:28;;;;;;;;;;;;;;;2.00;97.69;100227.91;5072902;28;20380;-35
2021/12/09 01:25:59;;;;;;;;;;;;;;;1.98;97.61;100231.78;5072764;28;19920;-36
2021/12/09 01:28:27;;;;;;;;;;;;;;;1.99;97.41;100234.25;5073336;28;20283;-36
2021/12/09 01:31:00;;;;;;;;;;;;;;;1.97;97.60;100235.47;5076917;28;19920;-35
2021/12/09 01:33:25;;;;;;;;;;;;;;;1.95;97.47;100238.31;5076280;28;20003;-35
2021/12/09 01:35:51;;;;;;;;;;;;;;;1.94;97.56;100236.66;5076530;28;19963;-36
2021/12/09 01:38:17;;;;;;;;;;;;;;;1.93;97.64;100244.84;5076497;28;19912;-35
2021/12/09 01:40:42;;;;;;;;;;;;;;;1.90;97.48;100239.88;5076659;28;19912;-35
2021/12/09 01:43:08;;;;;;;;;;;;;;;1.88;97.62;100240.09;5076379;28;19939;-35
2021/12/09 01:45:34;;;;;;;;;;;;;;;1.88;97.65;100236.59;5076631;28;20031;-35
2021/12/09 01:47:59;;;;;;;;;;;;;;;1.87;97.89;100237.63;5076184;28;19943;-35
2021/12/09 01:50:25;;;;;;;;;;;;;;;1.84;97.64;100229.97;5076540;28;19913;-35
2021/12/09 01:52:51;;;;;;;;;;;;;;;1.83;97.85;100239.00;5076335;28;19916;-35
2021/12/09 01:55:18;;;;;;;;;;;;;;;1.82;97.79;100232.03;5075783;28;20294;-35
2021/12/09 01:57:46;;;;;;;;;;;;;;;1.78;97.98;100236.91;5076029;28;19912;-35
2021/12/09 02:00:13;;;;;;;;;;;;;;;1.77;97.52;100241.41;5076782;28;19919;-35
2021/12/09 02:02:40;;;;;;;;;;;;;;;1.76;97.93;100231.75;5076602;28;19912;-35
2021/12/09 02:05:05;;;;;;;;;;;;;;;1.75;98.19;100234.59;5076146;28;19912;-35
2021/12/09 02:07:30;;;;;;;;;;;;;;;1.76;97.77;100228.28;5075684;28;19913;-35
2021/12/09 02:09:56;;;;;;;;;;;;;;;1.73;97.92;100224.13;5076180;28;19920;-35
2021/12/09 02:12:21;;;;;;;;;;;;;;;1.73;97.79;100224.13;5057613;28;19912;-35
2021/12/09 02:14:47;;;;;;;;;;;;;;;1.74;97.80;100219.63;5076376;28;19923;-35
2021/12/09 02:17:12;;;;;;;;;;;;;;;1.70;97.53;100213.00;5075305;28;19912;-35
2021/12/09 02:19:42;;;;;;;;;;;;;;;1.66;97.81;100217.06;5075892;28;20003;-35
2021/12/09 02:22:09;;;;;;;;;;;;;;;1.65;97.73;100218.09;5075787;28;19977;-35
2021/12/09 02:24:34;;;;;;;;;;;;;;;1.62;97.66;100219.31;5076422;28;19919;-35
2021/12/09 02:26:59;;;;;;;;;;;;;;;1.62;97.78;100216.63;5075989;28;19912;-35
2021/12/09 02:29:25;;;;;;;;;;;;;;;1.59;98.04;100209.00;5075578;28;20292;-35
2021/12/09 02:31:56;;;;;;;;;;;;;;;1.60;98.01;100218.66;5075195;28;20336;-35
2021/12/09 02:34:21;;;;;;;;;;;;;;;1.59;97.91;100217.00;5075665;28;20383;-35
2021/12/09 02:36:46;;;;;;;;;;;;;;;1.59;97.68;100217.00;5074960;28;20010;-35
2021/12/09 02:39:13;;;;;;;;;;;;;;;1.58;97.74;100219.88;5075620;28;19913;-35
2021/12/09 02:41:39;;;;;;;;;;;;;;;1.53;97.91;100218.59;5074394;28;19919;-35
2021/12/09 02:44:05;;;;;;;;;;;;;;;1.52;98.43;100221.44;5075336;28;19912;-35
2021/12/09 02:46:37;;;;;;;;;;;;;;;1.49;97.98;100214.63;5075283;28;20002;-35
2021/12/09 02:49:08;;;;;;;;;;;;;;;1.51;98.01;100219.75;5075925;28;19919;-35
2021/12/09 02:51:34;;;;;;;;;;;;;;;1.48;98.21;100220.97;5075734;28;19912;-35
2021/12/09 02:53:59;;;;;;;;;;;;;;;1.44;98.62;100224.22;5075510;28;20375;-35
2021/12/09 02:56:24;;;;;;;;;;;;;;;1.41;98.35;100225.38;5074709;28;19916;-35
2021/12/09 02:58:50;;;;;;;;;;;;;;;1.42;98.34;100236.91;5075253;28;20190;-35
2021/12/09 03:01:16;;;;;;;;;;;;;;;1.40;98.62;100231.75;5074823;28;19912;-35
2021/12/09 03:03:49;;;;;;;;;;;;;;;1.41;98.91;100235.22;5075255;28;20317;-35
2021/12/09 03:06:14;;;;;;;;;;;;;;;1.38;98.72;100236.44;5074779;28;19919;-35
2021/12/09 03:08:41;;;;;;;;;;;;;;;1.39;98.53;100237.25;5074802;28;19912;-35
2021/12/09 03:11:07;;;;;;;;;;;;;;;1.35;98.48;100244.78;5075472;28;19991;-35
2021/12/09 03:13:33;;;;;;;;;;;;;;;1.33;98.63;100246.00;5057283;28;19912;-35
2021/12/09 03:15:59;;;;;;;;;;;;;;;1.33;98.74;100243.34;5075226;28;20256;-35
2021/12/09 03:18:24;;;;;;;;;;;;;;;1.31;98.73;100251.50;5075173;28;19917;-35
2021/12/09 03:20:50;;;;;;;;;;;;;;;1.32;98.83;100254.97;5074299;28;19916;-35
2021/12/09 03:23:15;;;;;;;;;;;;;;;1.28;99.04;100252.72;5075081;28;20276;-35
2021/12/09 03:25:42;;;;;;;;;;;;;;;1.29;99.07;100259.69;5074801;28;19920;-35
2021/12/09 03:28:07;;;;;;;;;;;;;;;1.27;99.03;100267.03;5074090;28;19935;-36
2021/12/09 03:30:32;;;;;;;;;;;;;;;1.28;98.93;100268.69;5074642;28;20356;-35
2021/12/09 03:32:57;;;;;;;;;;;;;;;1.32;98.82;100268.31;5073943;28;19913;-35
2021/12/09 03:35:23;;;;;;;;;;;;;;;1.32;99.17;100265.63;5074500;28;20026;-35
2021/12/09 03:37:49;;;;;;;;;;;;;;;1.34;98.94;100263.63;5074692;28;19912;-36
2021/12/09 03:40:14;;;;;;;;;;;;;;;1.34;98.79;100264.47;5074385;28;19961;-35
2021/12/09 03:42:40;;;;;;;;;;;;;;;1.33;99.02;100261.97;5074031;28;19912;-35
2021/12/09 03:45:06;;;;;;;;;;;;;;;1.33;98.59;100269.97;5074069;28;19916;-35
2021/12/09 03:47:32;;;;;;;;;;;;;;;1.31;98.90;100270.13;5073722;28;19912;-35
2021/12/09 03:49:58;;;;;;;;;;;;;;;1.30;98.58;100271.16;5074039;28;19917;-35
2021/12/09 03:52:23;;;;;;;;;;;;;;;1.31;99.09;100266.66;5074006;28;20352;-35
2021/12/09 03:54:48;;;;;;;;;;;;;;;1.28;98.79;100274.00;5073546;28;20001;-35
2021/12/09 03:57:14;;;;;;;;;;;;;;;1.28;98.70;100276.69;5073953;28;19938;-35
2021/12/09 03:59:40;;;;;;;;;;;;;;;1.27;98.57;100272.38;5074031;28;20026;-35
2021/12/09 04:02:06;;;;;;;;;;;;;;;1.26;98.52;100273.34;5073732;28;19931;-35
2021/12/09 04:04:31;;;;;;;;;;;;;;;1.27;98.62;100272.38;5074039;28;20012;-35
2021/12/09 04:06:57;;;;;;;;;;;;;;;1.27;98.34;100266.22;5073542;28;19998;-35
2021/12/09 04:09:22;;;;;;;;;;;;;;;1.27;98.33;100269.72;5073863;28;19912;-35
2021/12/09 04:11:49;;;;;;;;;;;;;;;1.28;98.60;100267.88;5055948;28;20260;-35
2021/12/09 04:14:14;;;;;;;;;;;;;;;1.27;98.82;100263.56;5073892;28;19913;-35
2021/12/09 04:16:39;;;;;;;;;;;;;;;1.26;98.43;100260.03;5074160;28;19912;-35
2021/12/09 04:19:06;;;;;;;;;;;;;;;1.27;98.55;100266.22;5073757;28;20012;-35
2021/12/09 04:21:32;;;;;;;;;;;;;;;1.25;98.41;100263.72;5073515;28;19919;-35
2021/12/09 04:23:57;;;;;;;;;;;;;;;1.26;98.26;100268.03;5073484;28;19917;-35
2021/12/09 04:26:23;;;;;;;;;;;;;;;1.24;98.70;100274.56;5073665;28;19912;-35
2021/12/09 04:28:48;;;;;;;;;;;;;;;1.25;98.42;100284.19;5074160;28;19935;-35
2021/12/09 04:31:14;;;;;;;;;;;;;;;1.23;98.26;100279.06;5073443;28;20387;-35
2021/12/09 04:33:41;;;;;;;;;;;;;;;1.21;98.73;100280.25;5074137;28;19912;-35
2021/12/09 04:36:07;;;;;;;;;;;;;;;1.19;98.13;100282.28;5072918;28;20409;-35
2021/12/09 04:38:32;;;;;;;;;;;;;;;1.15;98.48;100278.31;5073652;28;19916;-35
2021/12/09 04:40:57;;;;;;;;;;;;;;;1.12;98.61;100287.50;5073349;28;19920;-35
2021/12/09 04:43:22;;;;;;;;;;;;;;;1.13;98.78;100286.50;5073129;28;20341;-35
2021/12/09 04:45:48;;;;;;;;;;;;;;;1.13;98.93;100280.38;5072974;28;19913;-35
2021/12/09 04:48:13;;;;;;;;;;;;;;;1.12;98.50;100290.16;5073740;28;19912;-35
2021/12/09 04:50:39;;;;;;;;;;;;;;;1.11;98.56;100285.03;5072896;28;19997;-35
2021/12/09 04:53:05;;;;;;;;;;;;;;;1.10;98.91;100292.19;5052049;28;19999;-35
2021/12/09 04:55:31;;;;;;;;;;;;;;;1.08;99.07;100288.06;5051786;28;20364;-35
2021/12/09 04:57:56;;;;;;;;;;;;;;;1.10;98.86;100278.88;5052734;28;20020;-35
2021/12/09 05:00:22;;;;;;;;;;;;;;;1.11;98.60;100277.03;5053111;28;19920;-35
2021/12/09 05:05:22;;;;;;;;;;;;;;;1.11;99.17;100280.53;5056116;28;19912;-35
2021/12/09 05:07:48;;;;;;;;;;;;;;;1.10;99.12;100278.88;5057090;28;20007;-35
2021/12/09 05:10:13;;;;;;;;;;;;;;;1.12;98.95;100287.50;5057172;28;19912;-35
2021/12/09 05:12:38;;;;;;;;;;;;;;;1.11;99.04;100283.19;5056998;28;19916;-35
2021/12/09 05:15:04;;;;;;;;;;;;;;;1.10;98.72;100286.03;5057050;28;20365;-35
2021/12/09 05:17:29;;;;;;;;;;;;;;;1.11;98.94;100301.81;5057044;28;19920;-35
2021/12/09 05:19:54;;;;;;;;;;;;;;;1.12;99.16;100298.16;5056883;28;20312;-35
2021/12/09 05:22:20;;;;;;;;;;;;;;;1.10;99.07;100294.84;5056821;28;20003;-35
2021/12/09 05:24:49;;;;;;;;;;;;;;;1.14;98.51;100296.16;5056874;28;19959;-35
2021/12/09 05:27:15;;;;;;;;;;;;;;;1.11;98.79;100301.00;5056702;28;19913;-35
2021/12/09 05:29:42;;;;;;;;;;;;;;;1.08;98.64;100302.22;5056884;28;19920;-35
2021/12/09 05:32:08;;;;;;;;;;;;;;;1.07;98.94;100305.84;5057088;28;19917;-35
2021/12/09 05:34:37;;;;;;;;;;;;;;;1.06;98.99;100293.56;5056961;28;19922;-35
2021/12/09 05:37:02;;;;;;;;;;;;;;;1.07;99.07;100295.22;5057296;28;19913;-35
2021/12/09 05:39:27;;;;;;;;;;;;;;;1.04;99.47;100292.94;5055163;28;19962;-35
2021/12/09 05:41:53;;;;;;;;;;;;;;;1.06;99.36;100301.53;5056370;28;20004;-35
2021/12/09 05:44:19;;;;;;;;;;;;;;;1.06;99.67;100301.53;5056414;28;20383;-35
2021/12/09 05:46:46;;;;;;;;;;;;;;;1.09;99.28;100306.53;5056111;28;19912;-35
2021/12/09 05:49:12;;;;;;;;;;;;;;;1.06;99.21;100308.72;5056584;28;19936;-35
2021/12/09 05:51:38;;;;;;;;;;;;;;;1.02;99.25;100310.91;5056205;28;19916;-35
2021/12/09 05:54:04;;;;;;;;;;;;;;;1.01;99.57;100312.75;5054601;28;19916;-35
2021/12/09 05:56:29;;;;;;;;;;;;;;;1.02;99.31;100317.09;5056032;28;19935;-35
2021/12/09 05:58:54;;;;;;;;;;;;;;;1.02;99.22;100316.22;5056402;28;19934;-35
2021/12/09 06:01:20;;;;;;;;;;;;;;;1.03;99.31;100317.91;5056062;28;19967;-36
2021/12/09 06:03:46;;;;;;;;;;;;;;;1.04;99.24;100319.56;5055986;28;20293;-35
2021/12/09 06:06:11;;;;;;;;;;;;;;;1.03;99.64;100317.91;5055633;28;19913;-35
2021/12/09 06:08:39;;;;;;;;;;;;;;;1.00;99.32;100313.75;5055957;28;19924;-35
2021/12/09 06:11:05;;;;;;;;;;;;;;;0.98;99.55;100312.31;5055819;28;20281;-35
2021/12/09 06:13:31;;;;;;;;;;;;;;;0.96;99.66;100316.97;5055733;28;19912;-35
2021/12/09 06:15:57;;;;;;;;;;;;;;;0.95;99.97;100312.66;5055435;28;20083;-35
2021/12/09 06:18:22;;;;;;;;;;;;;;;0.96;99.59;100312.47;5055973;28;19983;-36
2021/12/09 06:20:47;;;;;;;;;;;;;;;0.98;99.69;100306.97;5055643;28;19958;-35
2021/12/09 06:23:13;;;;;;;;;;;;;;;0.99;99.34;100314.78;5054429;28;19912;-36
2021/12/09 06:25:38;;;;;;;;;;;;;;;1.00;99.26;100315.59;5055359;28;20387;-36
2021/12/09 06:28:03;;;;;;;;;;;;;;;0.98;99.63;100310.47;5055461;28;19920;-35
2021/12/09 06:30:29;;;;;;;;;;;;;;;0.98;99.75;100315.78;5055782;28;19920;-35
2021/12/09 06:32:54;;;;;;;;;;;;;;;0.97;99.60;100314.09;5055219;28;19913;-36
2021/12/09 06:35:19;;;;;;;;;;;;;;;0.97;99.56;100307.97;5055636;28;19920;-35
2021/12/09 06:37:46;;;;;;;;;;;;;;;0.98;99.81;100317.63;5054980;28;20257;-36
2021/12/09 06:40:14;;;;;;;;;;;;;;;0.94;99.96;100313.66;5056052;28;19912;-35
2021/12/09 06:42:40;;;;;;;;;;;;;;;0.94;99.86;100321.66;5055290;28;20352;-35
2021/12/09 06:45:07;;;;;;;;;;;;;;;0.94;99.71;100324.31;5055406;28;19982;-35
2021/12/09 06:47:32;;;;;;;;;;;;;;;0.95;99.98;100329.44;5054777;28;19916;-35
2021/12/09 06:49:57;;;;;;;;;;;;;;;0.93;100.00;100341.31;5055648;28;19970;-35
2021/12/09 06:52:22;;;;;;;;;;;;;;;0.94;100.00;100340.28;5055526;28;19913;-35
2021/12/09 06:54:48;;;;;;;;;;;;;;;0.95;99.94;100341.94;5075198;28;19927;-35
2021/12/09 06:57:13;;;;;;;;;;;;;;;0.95;100.00;100336.63;5074864;28;20326;-35
2021/12/09 06:59:38;;;;;;;;;;;;;;;0.95;100.00;100337.44;5074927;28;20356;-35
2021/12/09 07:02:04;;;;;;;;;;;;;;;0.98;99.72;100336.25;5074936;28;19916;-35
2021/12/09 07:04:29;;;;;;;;;;;;;;;0.96;99.87;100336.44;5075654;28;19912;-35
2021/12/09 07:06:54;;;;;;;;;;;;;;;0.96;100.00;100328.44;5074507;28;19938;-35
2021/12/09 07:09:19;;;;;;;;;;;;;;;0.98;100.00;100341.59;5074550;28;20291;-35
2021/12/09 07:11:50;;;;;;;;;;;;;;;0.97;100.00;100340.72;5074584;28;19938;-35
2021/12/09 07:14:17;;;;;;;;;;;;;;;0.98;99.87;100346.91;5075420;28;19912;-35
2021/12/09 07:16:42;;;;;;;;;;;;;;;0.96;100.00;100336.44;5074502;28;19919;-35
2021/12/09 07:19:07;;;;;;;;;;;;;;;0.97;100.00;100338.06;5075241;28;20338;-36
2021/12/09 07:21:32;;;;;;;;;;;;;;;0.99;100.00;100338.75;5074443;28;20272;-35
2021/12/09 07:23:58;;;;;;;;;;;;;;;1.02;100.00;100342.84;5074307;28;20276;-35
2021/12/09 07:26:23;;;;;;;;;;;;;;;0.99;99.90;100337.91;5074311;28;20361;-35
2021/12/09 07:28:48;;;;;;;;;;;;;;;0.98;100.00;100338.94;5073784;28;19913;-35
2021/12/09 07:31:15;;;;;;;;;;;;;;;0.95;100.00;100341.94;5074306;28;19912;-36
2021/12/09 07:33:41;;;;;;;;;;;;;;;0.95;100.00;100350.75;5074519;28;20278;-35
2021/12/09 07:36:06;;;;;;;;;;;;;;;0.94;100.00;100350.94;5074034;28;19931;-35
2021/12/09 07:38:31;;;;;;;;;;;;;;;0.95;100.00;100355.25;5094082;28;20201;-35
2021/12/09 07:40:56;;;;;;;;;;;;;;;0.95;100.00;100352.59;5094451;28;19985;-35
2021/12/09 07:43:22;;;;;;;;;;;;;;;0.96;100.00;100359.56;5094408;28;19912;-35
2021/12/09 07:45:47;;;;;;;;;;;;;;;0.97;100.00;100353.22;5093998;28;19978;-35
2021/12/09 07:48:12;;;;;;;;;;;;;;;0.99;100.00;100353.88;5094365;28;19919;-35
2021/12/09 07:50:38;;;;;;;;;;;;;;;1.00;100.00;100353.69;5094470;28;19946;-35
2021/12/09 07:53:04;;;;;;;;;;;;;;;1.01;100.00;100351.84;5093981;28;19921;-35
2021/12/09 07:55:29;;;;;;;;;;;;;;;1.00;100.00;100345.72;5091962;28;20233;-35
2021/12/09 07:57:55;;;;;;;;;;;;;;;1.02;100.00;100353.50;5082564;28;19912;-35
2021/12/09 08:00:22;;;;;;;;;;;;;;;1.03;99.87;100349.84;5094033;28;20355;-35
2021/12/09 08:02:48;;;;;;;;;;;;;;;1.03;100.00;100349.84;5093976;28;19916;-35
2021/12/09 08:05:14;;;;;;;;;;;;;;;1.02;100.00;100358.84;5093925;28;19916;-35
2021/12/09 08:07:41;;;;;;;;;;;;;;;1.02;100.00;100358.84;5093772;28;19919;-35
2021/12/09 08:10:07;;;;;;;;;;;;;;;1.06;100.00;100367.28;5093559;28;19965;-35
2021/12/09 08:12:33;;;;;;;;;;;;;;;1.11;100.00;100372.91;5093810;28;19911;-35
2021/12/09 08:14:58;;;;;;;;;;;;;;;1.11;100.00;100372.91;5093894;28;19999;-35
2021/12/09 08:20:08;;;;;;;;;;;;;;;1.14;100.00;100378.72;5093746;28;20368;-35
2021/12/09 08:22:33;;;;;;;;;;;;;;;1.16;100.00;100375.84;5093560;28;19919;-35
2021/12/09 08:24:59;;;;;;;;;;;;;;;1.20;100.00;100375.31;5094387;28;19912;-35
2021/12/09 08:27:25;;;;;;;;;;;;;;;1.24;100.00;100368.63;5093254;28;19912;-35
2021/12/09 08:29:50;;;;;;;;;;;;;;;1.30;100.00;100359.06;5094414;28;19912;-35
2021/12/09 08:32:15;;;;;;;;;;;;;;;1.32;100.00;100359.72;5093469;28;19958;-35
2021/12/09 08:34:41;;;;;;;;;;;;;;;1.36;100.00;100368.16;5093440;28;20276;-35
2021/12/09 08:37:06;;;;;;;;;;;;;;;1.41;100.00;100357.78;5093575;28;19916;-35
2021/12/09 08:39:31;;;;;;;;;;;;;;;1.46;100.00;100366.88;5093726;28;19919;-35
2021/12/09 08:41:56;;;;;;;;;;;;;;;1.47;100.00;100365.88;5094066;28;19916;-35
2021/12/09 08:44:22;;;;;;;;;;;;;;;1.48;100.00;100372.03;5093543;28;19920;-35
2021/12/09 08:46:47;;;;;;;;;;;;;;;1.50;100.00;100375.34;5093879;28;20000;-35
2021/12/09 08:49:12;;;;;;;;;;;;;;;1.53;100.00;100377.66;5093402;28;19951;-35
2021/12/09 08:51:38;;;;;;;;;;;;;;;1.57;100.00;100373.59;5093007;28;19911;-35
2021/12/09 08:54:04;;;;;;;;;;;;;;;1.59;100.00;100376.91;5094182;28;20006;-35
2021/12/09 08:56:29;;;;;;;;;;;;;;;1.64;100.00;100379.84;5093201;28;19911;-35
2021/12/09 08:58:55;;;;;;;;;;;;;;;1.69;100.00;100379.28;5093251;28;20356;-35
2021/12/09 09:01:20;;;;;;;;;;;;;;;1.71;100.00;100382.63;5092983;28;19912;-35
2021/12/09 09:03:45;;;;;;;;;;;;;;;1.73;100.00;100376.06;5094012;28;19912;-35
2021/12/09 09:06:11;;;;;;;;;;;;;;;1.77;99.81;100374.69;5093131;28;19912;-35
2021/12/09 09:08:36;;;;;;;;;;;;;;;1.83;100.00;100385.63;5093156;28;19916;-35
2021/12/09 09:11:02;;;;;;;;;;;;;;;1.85;99.68;100373.75;5093003;28;19921;-35
2021/12/09 09:13:27;;;;;;;;;;;;;;;1.90;99.90;100386.53;5093073;28;19912;-35
2021/12/09 09:15:52;;;;;;;;;;;;;;;1.95;99.76;100377.00;5093040;28;19919;-35
2021/12/09 09:18:18;;;;;;;;;;;;;;;2.01;100.00;100384.25;5093237;28;19912;-35
2021/12/09 09:20:44;;;;;;;;;;;;;;;2.02;99.63;100385.88;5092711;28;20020;-35
2021/12/09 09:23:11;;;;;;;;;;;;;;;2.07;99.60;100388.00;5093266;28;19912;-35
2021/12/09 09:25:36;;;;;;;;;;;;;;;2.12;99.86;100393.59;5093500;28;19990;-35
2021/12/09 09:28:01;;;;;;;;;;;;;;;2.14;99.54;100396.06;5092703;28;20363;-35
2021/12/09 09:30:34;;;;;;;;;;;;;;;2.17;99.73;100391.19;5093053;28;20352;-35
2021/12/09 09:32:59;;;;;;;;;;;;;;;2.20;99.59;100388.16;5093187;28;19912;-35
2021/12/09 09:35:25;;;;;;;;;;;;;;;2.23;99.13;100389.63;5093193;28;19935;-35
2021/12/09 09:37:50;;;;;;;;;;;;;;;2.26;99.40;100387.41;5092737;28;19958;-35
2021/12/09 09:40:16;;;;;;;;;;;;;;;2.31;99.50;100398.34;5093185;28;19912;-35
2021/12/09 09:45:09;;;;;;;;;;;;;;;2.41;99.15;100392.69;5092850;28;19912;-35
2021/12/09 09:47:34;;;;;;;;;;;;;;;2.44;99.16;100396.81;5093366;28;19919;-35
2021/12/09 09:49:59;;;;;;;;;;;;;;;2.47;99.15;100397.28;5093208;28;19912;-35
2021/12/09 09:52:25;;;;;;;;;;;;;;;2.50;98.90;100401.44;5096048;28;19919;-35
2021/12/09 09:54:51;;;;;;;;;;;;;;;2.51;99.00;100403.91;5096756;28;19912;-35
2021/12/09 09:57:16;;;;;;;;;;;;;;;2.52;99.18;100402.06;5096364;28;19915;-35
2021/12/09 09:59:42;;;;;;;;;;;;;;;2.52;99.13;100408.22;5096681;28;20310;-35
2021/12/09 10:02:08;;;;;;;;;;;;;;;2.55;98.94;100410.50;5096000;28;19918;-36
2021/12/09 10:04:44;;;;;;;;;;;;;;;2.60;98.71;100412.63;5096567;28;19919;-35
2021/12/09 10:07:10;;;;;;;;;;;;;;;2.63;98.94;100406.06;5096661;28;20378;-35
2021/12/09 10:09:36;;;;;;;;;;;;;;;2.61;98.87;100408.09;5096454;28;19980;-35
2021/12/09 10:12:02;;;;;;;;;;;;;;;2.64;98.80;100408.56;5095824;28;19981;-35
2021/12/09 10:14:28;;;;;;;;;;;;;;;2.68;99.04;100406.31;5096001;28;19946;-35
2021/12/09 10:17:02;;;;;;;;;;;;;;;2.69;99.41;100395.47;5096239;28;20340;-35
2021/12/09 10:19:27;;;;;;;;;;;;;;;2.71;99.11;100390.75;5096295;28;19920;-35
2021/12/09 10:22:03;;;;;;;;;;;;;;;2.73;98.89;100387.88;5096387;28;19967;-35
2021/12/09 10:24:30;;;;;;;;;;;;;;;2.75;98.88;100388.53;5096119;28;20415;-35
2021/12/09 10:26:55;;;;;;;;;;;;;;;2.78;99.21;100380.97;5095935;28;19991;-35
2021/12/09 10:29:29;;;;;;;;;;;;;;;2.82;99.05;100378.72;5096251;28;19923;-35
2021/12/09 10:31:58;;;;;;;;;;;;;;;2.89;98.87;100378.81;5096093;28;20317;-35
2021/12/09 10:34:42;;;;;;;;;;;;;;;2.91;99.01;100369.56;5096516;28;20263;-35
2021/12/09 10:37:26;;;;;;;;;;;;;;;2.95;98.85;100378.03;5095653;28;19967;-35
2021/12/09 10:39:53;;;;;;;;;;;;;;;2.99;98.80;100373.94;5095645;28;19912;-35
2021/12/09 10:42:22;;;;;;;;;;;;;;;3.04;98.79;100380.38;5076961;28;19919;-36
2021/12/09 10:45:07;;;;;;;;;;;;;;;3.06;98.65;100385.50;5095471;28;19951;-35
2021/12/09 10:47:56;;;;;;;;;;;;;;;3.09;98.76;100382.47;5095721;28;19919;-36
2021/12/09 10:52:48;;;;;;;;;;;;;;;3.15;98.76;100383.53;5095159;28;19916;-35
2021/12/09 10:55:16;;;;;;;;;;;;;;;3.20;98.67;100381.09;5095795;28;19911;-35
2021/12/09 10:57:41;;;;;;;;;;;;;;;3.18;98.28;100388.50;5095181;28;19919;-35
2021/12/09 11:00:19;;;;;;;;;;;;;;;3.19;98.41;100387.47;5095289;28;19916;-35
2021/12/09 11:03:02;;;;;;;;;;;;;;;3.17;98.29;100379.63;5094373;28;19912;-35
2021/12/09 11:05:28;;;;;;;;;;;;;;;3.20;98.53;100378.44;5095639;28;19948;-35
2021/12/09 11:07:53;;;;;;;;;;;;;;;3.18;98.57;100380.47;5095136;28;19982;-36
2021/12/09 11:10:22;;;;;;;;;;;;;;;3.19;98.71;100376.78;5094788;28;20016;-36
2021/12/09 11:12:56;;;;;;;;;;;;;;;3.22;98.68;100377.22;5094926;28;19912;-36
2021/12/09 11:15:23;;;;;;;;;;;;;;;3.24;98.71;100372.50;5095777;28;20002;-36
2021/12/09 11:17:50;;;;;;;;;;;;;;;3.26;98.62;100370.44;5094734;28;20006;-36
2021/12/09 11:20:34;;;;;;;;;;;;;;;3.31;98.98;100368.00;5095023;28;20298;-36
2021/12/09 11:22:59;;;;;;;;;;;;;;;3.37;99.05;100366.44;5094441;28;20050;-36
2021/12/09 11:25:33;;;;;;;;;;;;;;;3.42;98.71;100355.97;5094507;28;19959;-36
2021/12/09 11:28:08;;;;;;;;;;;;;;;3.48;99.03;100359.72;5095151;28;20271;-36
2021/12/09 11:30:53;;;;;;;;;;;;;;;3.51;98.65;100356.63;5095174;28;20013;-36
2021/12/09 11:33:34;;;;;;;;;;;;;;;3.53;98.57;100349.25;5094732;28;19947;-36
2021/12/09 11:36:01;;;;;;;;;;;;;;;3.56;98.28;100348.84;5094535;28;19911;-36
2021/12/09 11:38:55;;;;;;;;;;;;;;;3.57;98.78;100362.03;5094256;28;19927;-36
2021/12/09 11:41:27;;;;;;;;;;;;;;;3.60;98.81;100360.78;5094866;28;19912;-36
2021/12/09 11:43:52;;;;;;;;;;;;;;;3.60;98.42;100360.78;5094648;28;19978;-36
2021/12/09 11:46:17;;;;;;;;;;;;;;;3.62;98.39;100353.41;5094012;28;19920;-36
2021/12/09 11:48:44;;;;;;;;;;;;;;;3.65;98.54;100353.00;5094543;28;19912;-36
2021/12/09 11:51:09;;;;;;;;;;;;;;;3.68;98.27;100341.94;5093903;28;19912;-36
2021/12/09 11:53:37;;;;;;;;;;;;;;;3.69;97.86;100348.91;5094556;28;20272;-36
2021/12/09 11:56:09;;;;;;;;;;;;;;;3.70;97.92;100355.09;5094102;28;19931;-36
2021/12/09 11:58:44;;;;;;;;;;;;;;;3.70;98.22;100355.91;5094747;28;19965;-36
2021/12/09 12:13:05;;;;;;;;;;;;;;;3.81;98.30;100338.50;5093477;28;19918;-36
2021/12/09 12:15:55;;;;;;;;;;;;;;;3.87;98.64;100333.16;5094622;28;19919;-36
2021/12/09 12:21:07;;;;;;;;;;;;;;;3.93;97.93;100323.50;5093718;28;19959;-36
2021/12/09 12:29:10;;;;;;;;;;;;;;;4.00;97.82;100323.53;5093427;28;19937;-37
2021/12/09 12:32:06;;;;;;;;;;;;;;;3.95;97.91;100307.25;5093540;28;20376;-36
2021/12/09 12:37:46;;;;;;;;;;;;;;;3.92;97.98;100321.88;5093232;28;20018;-36
2021/12/09 12:40:13;;;;;;;;;;;;;;;3.91;97.54;100319.41;5094171;28;19912;-36
2021/12/09 12:42:52;;;;;;;;;;;;;;;3.91;97.97;100324.75;5093633;28;19931;-36
2021/12/09 12:48:30;;;;;;;;;;;;;;;3.89;98.05;100324.94;5093666;28;20011;-36
2021/12/09 12:51:05;;;;;;;;;;;;;;;3.91;97.93;100325.56;5094156;28;20248;-37
2021/12/09 12:53:35;;;;;;;;;;;;;;;3.96;97.72;100327.66;5093453;28;19932;-36
2021/12/09 12:56:12;;;;;;;;;;;;;;;3.98;98.27;100317.56;5093336;28;20019;-36
2021/12/09 12:58:38;;;;;;;;;;;;;;;4.00;98.32;100321.72;5093587;28;19922;-36
2021/12/09 13:01:17;;;;;;;;;;;;;;;3.99;98.53;100316.53;5093265;28;19922;-36
2021/12/09 13:03:47;;;;;;;;;;;;;;;4.00;97.86;100313.69;5093279;28;19919;-36
2021/12/09 13:06:37;;;;;;;;;;;;;;;4.02;98.34;100311.63;5092916;28;20007;-36
2021/12/09 13:09:20;;;;;;;;;;;;;;;4.05;98.02;100321.06;5093765;28;20332;-36
2021/12/09 13:11:53;;;;;;;;;;;;;;;4.08;98.34;100326.03;5093714;28;20272;-36
2021/12/09 13:14:26;;;;;;;;;;;;;;;4.06;98.40;100325.44;5093679;28;19919;-36
2021/12/09 13:17:13;;;;;;;;;;;;;;;4.09;98.67;100316.97;5093241;28;20006;-36
2021/12/09 13:19:53;;;;;;;;;;;;;;;4.09;98.17;100327.69;5093396;28;20417;-36
2021/12/09 13:22:41;;;;;;;;;;;;;;;4.07;98.70;100325.22;5093125;28;19912;-36